sensor_id;sensor_type;location;lat;lon;timestamp;pressure;altitude;pressure_sealevel;temperature;humidity
4123;BME280;2075;51.062;6.920;2023-04-23T00:00:22;957.97;;;-144.48;100.00
4123;BME280;2075;51.062;6.920;2023-04-23T00:03:09;452.09;;;-144.48;100.00
4123;BME280;2075;51.062;6.920;2023-04-23T00:05:58;1463.94;;;-144.48;100.00
4123;BME280;2075;51.062;6.920;2023-04-23T00:08:43;1210.94;;;-144.48;100.00
4123;BME280;2075;51.062;6.920;2023-04-23T00:11:29;1716.94;;;-144.48;100.00
4123;BME280;2075;51.062;6.920;2023-04-23T00:14:17;199.19;;;-144.48;100.00
4123;BME280;2075;51.062;6.920;2023-04-23T00:17:03;-53.69;;;-144.48;100.00
4123;BME280;2075;51.062;6.920;2023-04-23T00:19:49;-812.25;;;-144.48;100.00
4123;BME280;2075;51.062;6.920;2023-04-23T00:22:35;-1317.84;;;-144.48;100.00
4123;BME280;2075;51.062;6.920;2023-04-23T00:25:21;-1065.06;;;-144.48;100.00
4123;BME280;2075;51.062;6.920;2023-04-23T00:28:06;-812.25;;;-144.48;100.00
4123;BME280;2075;51.062;6.920;2023-04-23T00:30:53;-1065.06;;;-144.48;100.00
4123;BME280;2075;51.062;6.920;2023-04-23T00:33:38;-1317.84;;;-144.48;100.00
4123;BME280;2075;51.062;6.920;2023-04-23T00:36:24;-812.25;;;-144.48;100.00
4123;BME280;2075;51.062;6.920;2023-04-23T00:39:09;-1317.84;;;-144.48;100.00
4123;BME280;2075;51.062;6.920;2023-04-23T00:41:55;-1570.63;;;-144.48;100.00
4123;BME280;2075;51.062;6.920;2023-04-23T00:44:42;-1823.38;;;-144.48;100.00
4123;BME280;2075;51.062;6.920;2023-04-23T00:47:30;-2328.84;;;-144.48;100.00
4123;BME280;2075;51.062;6.920;2023-04-23T00:50:15;-2328.84;;;-144.48;100.00
4123;BME280;2075;51.062;6.920;2023-04-23T00:53:01;-2834.19;;;-144.48;100.00
4123;BME280;2075;51.062;6.920;2023-04-23T00:55:47;-3592.09;;;-144.48;100.00
4123;BME280;2075;51.062;6.920;2023-04-23T00:58:33;-4602.38;;;-144.48;100.00
4123;BME280;2075;51.062;6.920;2023-04-23T01:01:19;-5864.78;;;-144.48;100.00
4123;BME280;2075;51.062;6.920;2023-04-23T01:04:06;-6369.59;;;-144.48;100.00
4123;BME280;2075;51.062;6.920;2023-04-23T01:06:53;-6369.59;;;-144.48;100.00
4123;BME280;2075;51.062;6.920;2023-04-23T01:09:39;-7379.00;;;-144.48;100.00
4123;BME280;2075;51.062;6.920;2023-04-23T01:12:33;-7379.00;;;-144.48;100.00
4123;BME280;2075;51.062;6.920;2023-04-23T01:15:19;-7126.69;;;-144.48;100.00
4123;BME280;2075;51.062;6.920;2023-04-23T01:18:04;-7126.69;;;-144.48;100.00
4123;BME280;2075;51.062;6.920;2023-04-23T01:20:52;-7126.69;;;-144.48;100.00
4123;BME280;2075;51.062;6.920;2023-04-23T01:23:39;-5864.78;;;-144.48;100.00
4123;BME280;2075;51.062;6.920;2023-04-23T01:26:25;-5359.88;;;-144.48;100.00
4123;BME280;2075;51.062;6.920;2023-04-23T01:29:11;-7126.69;;;-144.48;100.00
4123;BME280;2075;51.062;6.920;2023-04-23T01:31:58;-8135.88;;;-144.48;100.00
4123;BME280;2075;51.062;6.920;2023-04-23T01:34:45;-7379.00;;;-144.48;100.00
4123;BME280;2075;51.062;6.920;2023-04-23T01:37:32;-9396.91;;;-144.48;100.00
4123;BME280;2075;51.062;6.920;2023-04-23T01:40:20;-10909.50;;;-144.48;100.00
4123;BME280;2075;51.062;6.920;2023-04-23T01:43:06;-11665.53;;;-144.48;100.00
4123;BME280;2075;51.062;6.920;2023-04-23T01:45:51;-11667.00;;;-144.48;100.00
4123;BME280;2075;51.062;6.920;2023-04-23T01:48:37;-11667.00;;;-144.48;100.00
4123;BME280;2075;51.062;6.920;2023-04-23T01:51:24;-11667.00;;;-144.48;100.00
4123;BME280;2075;51.062;6.920;2023-04-23T01:54:09;-11667.00;;;-144.48;100.00
4123;BME280;2075;51.062;6.920;2023-04-23T01:56:56;-11667.00;;;-144.48;100.00
4123;BME280;2075;51.062;6.920;2023-04-23T01:59:42;-11667.00;;;-144.48;100.00
4123;BME280;2075;51.062;6.920;2023-04-23T02:02:27;-11667.00;;;-144.48;100.00
4123;BME280;2075;51.062;6.920;2023-04-23T02:05:15;-11667.00;;;-144.48;100.00
4123;BME280;2075;51.062;6.920;2023-04-23T02:08:02;-11667.00;;;-144.48;100.00
4123;BME280;2075;51.062;6.920;2023-04-23T02:10:47;-11667.00;;;-144.48;100.00
4123;BME280;2075;51.062;6.920;2023-04-23T02:13:34;-11667.00;;;-144.48;100.00
4123;BME280;2075;51.062;6.920;2023-04-23T02:16:19;-11667.00;;;-144.48;100.00
4123;BME280;2075;51.062;6.920;2023-04-23T02:19:07;-11667.00;;;-144.48;100.00
4123;BME280;2075;51.062;6.920;2023-04-23T02:21:53;-11667.00;;;-144.48;100.00
4123;BME280;2075;51.062;6.920;2023-04-23T02:24:38;-11667.00;;;-144.48;100.00
4123;BME280;2075;51.062;6.920;2023-04-23T02:27:25;-11667.00;;;-144.48;100.00
4123;BME280;2075;51.062;6.920;2023-04-23T02:30:12;-11667.00;;;-144.48;100.00
4123;BME280;2075;51.062;6.920;2023-04-23T02:32:57;-11667.00;;;-144.48;100.00
4123;BME280;2075;51.062;6.920;2023-04-23T02:35:43;-11667.00;;;-144.48;100.00
4123;BME280;2075;51.062;6.920;2023-04-23T02:38:28;-11667.00;;;-144.48;100.00
4123;BME280;2075;51.062;6.920;2023-04-23T02:41:13;-11667.00;;;-144.48;100.00
4123;BME280;2075;51.062;6.920;2023-04-23T02:43:59;-11667.00;;;-144.48;100.00
4123;BME280;2075;51.062;6.920;2023-04-23T02:46:46;-11667.00;;;-144.48;100.00
4123;BME280;2075;51.062;6.920;2023-04-23T02:49:31;-11667.00;;;-144.48;100.00
4123;BME280;2075;51.062;6.920;2023-04-23T02:52:17;-11667.00;;;-144.48;100.00
4123;BME280;2075;51.062;6.920;2023-04-23T02:55:03;-11667.00;;;-144.48;100.00
4123;BME280;2075;51.062;6.920;2023-04-23T02:57:48;-11667.00;;;-144.48;100.00
4123;BME280;2075;51.062;6.920;2023-04-23T03:00:34;-11667.00;;;-144.48;100.00
4123;BME280;2075;51.062;6.920;2023-04-23T03:03:21;-11667.00;;;-144.48;100.00
4123;BME280;2075;51.062;6.920;2023-04-23T03:06:10;-11667.00;;;-144.48;100.00
4123;BME280;2075;51.062;6.920;2023-04-23T03:08:55;-11667.00;;;-144.48;100.00
4123;BME280;2075;51.062;6.920;2023-04-23T03:11:41;-11667.00;;;-144.48;100.00
4123;BME280;2075;51.062;6.920;2023-04-23T03:14:29;-11667.00;;;-144.48;100.00
4123;BME280;2075;51.062;6.920;2023-04-23T03:17:14;-11667.00;;;-144.48;100.00
4123;BME280;2075;51.062;6.920;2023-04-23T03:20:02;-11667.00;;;-144.48;100.00
4123;BME280;2075;51.062;6.920;2023-04-23T03:22:48;-11667.00;;;-144.48;100.00
4123;BME280;2075;51.062;6.920;2023-04-23T03:25:33;-11667.00;;;-144.48;100.00
4123;BME280;2075;51.062;6.920;2023-04-23T03:28:19;-11667.00;;;-144.48;100.00
4123;BME280;2075;51.062;6.920;2023-04-23T03:31:04;-11667.00;;;-144.48;100.00
4123;BME280;2075;51.062;6.920;2023-04-23T03:33:50;-11667.00;;;-144.48;100.00
4123;BME280;2075;51.062;6.920;2023-04-23T03:36:43;-11667.00;;;-144.48;100.00
4123;BME280;2075;51.062;6.920;2023-04-23T03:39:31;-11667.00;;;-144.48;100.00
4123;BME280;2075;51.062;6.920;2023-04-23T03:42:16;-11667.00;;;-144.48;100.00
4123;BME280;2075;51.062;6.920;2023-04-23T03:45:02;-11667.00;;;-144.48;100.00
4123;BME280;2075;51.062;6.920;2023-04-23T03:47:48;-11667.00;;;-144.48;100.00
4123;BME280;2075;51.062;6.920;2023-04-23T03:50:35;-11667.00;;;-144.48;100.00
4123;BME280;2075;51.062;6.920;2023-04-23T03:53:32;-11667.00;;;-144.48;100.00
4123;BME280;2075;51.062;6.920;2023-04-23T03:56:50;-11667.00;;;-144.48;100.00
4123;BME280;2075;51.062;6.920;2023-04-23T03:59:39;-11667.00;;;-144.48;100.00
4123;BME280;2075;51.062;6.920;2023-04-23T04:02:26;-11667.00;;;-144.48;100.00
4123;BME280;2075;51.062;6.920;2023-04-23T04:05:11;-11667.00;;;-144.48;100.00
4123;BME280;2075;51.062;6.920;2023-04-23T04:07:56;-11667.00;;;-144.48;100.00
4123;BME280;2075;51.062;6.920;2023-04-23T04:10:44;-11667.00;;;-144.48;100.00
4123;BME280;2075;51.062;6.920;2023-04-23T04:13:29;-11667.00;;;-144.48;100.00
4123;BME280;2075;51.062;6.920;2023-04-23T04:16:15;-11667.00;;;-144.48;100.00
4123;BME280;2075;51.062;6.920;2023-04-23T04:19:00;-11667.00;;;-144.48;100.00
4123;BME280;2075;51.062;6.920;2023-04-23T04:21:46;-11667.00;;;-144.48;100.00
4123;BME280;2075;51.062;6.920;2023-04-23T04:24:31;-11667.00;;;-144.48;100.00
4123;BME280;2075;51.062;6.920;2023-04-23T04:27:20;-11667.00;;;-144.48;100.00
4123;BME280;2075;51.062;6.920;2023-04-23T04:30:07;-11667.00;;;-144.48;100.00
4123;BME280;2075;51.062;6.920;2023-04-23T04:32:52;-11667.00;;;-144.48;100.00
4123;BME280;2075;51.062;6.920;2023-04-23T04:35:39;-11667.00;;;-144.48;100.00
4123;BME280;2075;51.062;6.920;2023-04-23T04:38:25;-11667.00;;;-144.48;100.00
4123;BME280;2075;51.062;6.920;2023-04-23T04:41:11;-11667.00;;;-144.48;100.00
4123;BME280;2075;51.062;6.920;2023-04-23T04:43:58;-11667.00;;;-144.48;100.00
4123;BME280;2075;51.062;6.920;2023-04-23T04:46:44;-11667.00;;;-144.48;100.00
4123;BME280;2075;51.062;6.920;2023-04-23T04:49:29;-11667.00;;;-144.48;100.00
4123;BME280;2075;51.062;6.920;2023-04-23T04:52:16;-11667.00;;;-144.48;100.00
4123;BME280;2075;51.062;6.920;2023-04-23T04:55:03;-11161.53;;;-144.48;100.00
4123;BME280;2075;51.062;6.920;2023-04-23T04:57:50;-10405.38;;;-144.48;100.00
4123;BME280;2075;51.062;6.920;2023-04-23T05:00:37;-9396.91;;;-144.48;100.00
4123;BME280;2075;51.062;6.920;2023-04-23T05:03:23;-8640.34;;;-144.48;100.00
4123;BME280;2075;51.062;6.920;2023-04-23T05:06:09;-8388.09;;;-144.48;100.00
4123;BME280;2075;51.062;6.920;2023-04-23T05:08:54;-8135.88;;;-144.48;100.00
4123;BME280;2075;51.062;6.920;2023-04-23T05:11:40;-8388.09;;;-144.48;100.00
4123;BME280;2075;51.062;6.920;2023-04-23T05:14:26;-9396.91;;;-144.48;100.00
4123;BME280;2075;51.062;6.920;2023-04-23T05:17:13;-9144.72;;;-144.48;100.00
4123;BME280;2075;51.062;6.920;2023-04-23T05:19:59;-8388.09;;;-144.48;100.00
4123;BME280;2075;51.062;6.920;2023-04-23T05:22:44;-6874.34;;;-144.48;100.00
4123;BME280;2075;51.062;6.920;2023-04-23T05:25:30;-7126.69;;;-144.48;100.00
4123;BME280;2075;51.062;6.920;2023-04-23T05:28:17;-6621.97;;;-144.48;100.00
4123;BME280;2075;51.062;6.920;2023-04-23T05:31:03;-6621.97;;;-144.48;100.00
4123;BME280;2075;51.062;6.920;2023-04-23T05:33:51;-6621.97;;;-144.48;100.00
4123;BME280;2075;51.062;6.920;2023-04-23T05:36:36;-4854.91;;;-144.48;100.00
4123;BME280;2075;51.062;6.920;2023-04-23T05:44:46;-559.44;;;-144.48;100.00
4123;BME280;2075;51.062;6.920;2023-04-23T05:47:38;-53.69;;;-144.48;100.00
4123;BME280;2075;51.062;6.920;2023-04-23T05:50:34;3488.53;;;-144.48;100.00
4123;BME280;2075;51.062;6.920;2023-04-23T05:53:20;6274.38;;;-144.48;100.00
4123;BME280;2075;51.062;6.920;2023-04-23T05:56:08;9316.19;;;-144.48;100.00
4123;BME280;2075;51.062;6.920;2023-04-23T05:59:17;11599.41;;;-144.48;100.00
4123;BME280;2075;51.062;6.920;2023-04-23T06:02:27;11853.19;;;-144.48;100.00
4123;BME280;2075;51.062;6.920;2023-04-23T06:10:41;15154.19;;;-144.48;100.00
4123;BME280;2075;51.062;6.920;2023-04-23T06:18:54;20493.53;;;-144.48;100.00
4123;BME280;2075;51.062;6.920;2023-04-23T06:26:57;33240.88;;;-144.48;100.00
4123;BME280;2075;51.062;6.920;2023-04-23T06:29:45;35796.19;;;-144.48;100.00
4123;BME280;2075;51.062;6.920;2023-04-23T06:32:33;39376.91;;;-144.48;100.00
4123;BME280;2075;51.062;6.920;2023-04-23T06:35:24;43217.66;;;-144.48;100.00
4123;BME280;2075;51.062;6.920;2023-04-23T06:38:15;46806.28;;;-144.48;100.00
4123;BME280;2075;51.062;6.920;2023-04-23T06:41:10;56566.16;;;-144.48;100.00
4123;BME280;2075;51.062;6.920;2023-04-23T06:44:04;68418.44;;;-144.48;100.00
4123;BME280;2075;51.062;6.920;2023-04-23T06:46:57;74830.72;;;-144.48;100.00
4123;BME280;2075;51.062;6.920;2023-04-23T06:49:43;78903.91;;;-144.48;100.00
4123;BME280;2075;51.062;6.920;2023-04-23T06:52:29;78594.47;;;-144.48;100.00
4123;BME280;2075;51.062;6.920;2023-04-23T06:58:18;69237.22;;;-144.48;100.00
4123;BME280;2075;51.062;6.920;2023-04-23T07:01:06;67902.25;;;-144.48;100.00
4123;BME280;2075;51.062;6.920;2023-04-23T07:03:53;66096.25;;;-144.48;100.00
4123;BME280;2075;51.062;6.920;2023-04-23T07:06:39;72766.66;;;-144.48;100.00
4123;BME280;2075;51.062;6.920;2023-04-23T07:09:25;85406.75;;;-144.48;100.00
4123;BME280;2075;51.062;6.920;2023-04-23T07:12:11;91621.44;;;-144.48;100.00
4123;BME280;2075;51.062;6.920;2023-04-23T07:14:57;93209.34;;;-144.48;90.48
4123;BME280;2075;51.062;6.920;2023-04-23T07:17:44;93262.16;;;-144.48;84.36
4123;BME280;2075;51.062;6.920;2023-04-23T07:20:32;93294.63;;;-144.48;81.21
4123;BME280;2075;51.062;6.920;2023-04-23T07:23:20;93373.84;;;-144.48;78.11
4123;BME280;2075;51.062;6.920;2023-04-23T07:26:06;93335.25;;;-144.48;70.75
4123;BME280;2075;51.062;6.920;2023-04-23T07:28:52;93302.75;;;-144.48;67.21
4123;BME280;2075;51.062;6.920;2023-04-23T07:31:38;93221.53;;;-144.48;65.41
4123;BME280;2075;51.062;6.920;2023-04-23T07:34:25;93312.91;;;-144.48;66.79
4123;BME280;2075;51.062;6.920;2023-04-23T07:37:11;93286.50;;;-144.48;66.71
4123;BME280;2075;51.062;6.920;2023-04-23T07:39:56;93115.91;;;-144.48;62.38
4123;BME280;2075;51.062;6.920;2023-04-23T07:42:42;93042.78;;;-144.48;56.12
4123;BME280;2075;51.062;6.920;2023-04-23T07:45:27;93095.59;;;-144.48;56.27
4123;BME280;2075;51.062;6.920;2023-04-23T07:48:13;93038.72;;;-144.48;54.29
4123;BME280;2075;51.062;6.920;2023-04-23T07:51:00;93136.22;;;-144.48;55.29
4123;BME280;2075;51.062;6.920;2023-04-23T07:53:45;92990.00;;;-144.48;53.67
4123;BME280;2075;51.062;6.920;2023-04-23T07:56:32;92518.84;;;-144.48;46.22
4123;BME280;2075;51.062;6.920;2023-04-23T07:59:17;91526.00;;;-144.48;35.48
4123;BME280;2075;51.062;6.920;2023-04-23T08:02:03;91097.69;;;-144.48;31.58
4123;BME280;2075;51.062;6.920;2023-04-23T08:04:49;90632.91;;;-144.48;29.80
4123;BME280;2075;51.062;6.920;2023-04-23T08:07:36;90383.28;;;-144.48;29.04
4123;BME280;2075;51.062;6.920;2023-04-23T08:10:21;90464.47;;;-144.48;28.06
4123;BME280;2075;51.062;6.920;2023-04-23T08:13:07;90156.00;;;-144.48;27.90
4123;BME280;2075;51.062;6.920;2023-04-23T08:15:52;90095.13;;;-144.48;27.76
4123;BME280;2075;51.062;6.920;2023-04-23T08:18:37;91004.31;;;-144.48;30.12
4123;BME280;2075;51.062;6.920;2023-04-23T08:21:23;90874.44;;;-144.48;30.02
4123;BME280;2075;51.062;6.920;2023-04-23T08:24:11;91270.25;;;-144.48;30.50
4123;BME280;2075;51.062;6.920;2023-04-23T08:26:56;92135.09;;;-144.48;35.07
4123;BME280;2075;51.062;6.920;2023-04-23T08:29:42;92699.59;;;-144.48;39.54
4123;BME280;2075;51.062;6.920;2023-04-23T08:32:28;92914.84;;;-144.48;43.50
4123;BME280;2075;51.062;6.920;2023-04-23T08:35:13;93054.97;;;-144.48;46.63
4123;BME280;2075;51.062;6.920;2023-04-23T08:38:01;93272.28;;;-144.48;50.50
4123;BME280;2075;51.062;6.920;2023-04-23T08:40:50;93156.53;;;-144.48;51.96
4123;BME280;2075;51.062;6.920;2023-04-23T08:43:44;92872.19;;;-144.48;46.56
4123;BME280;2075;51.062;6.920;2023-04-23T08:46:31;92673.19;;;-144.48;43.36
4123;BME280;2075;51.062;6.920;2023-04-23T08:49:20;92801.13;;;-144.48;43.19
4123;BME280;2075;51.062;6.920;2023-04-23T08:52:12;93176.84;;;-144.48;46.71
4123;BME280;2075;51.062;6.920;2023-04-23T08:55:00;93008.28;;;-144.48;45.62
4123;BME280;2075;51.062;6.920;2023-04-23T08:57:47;92943.28;;;-144.48;44.99
4123;BME280;2075;51.062;6.920;2023-04-23T09:00:33;93020.44;;;-144.48;46.13
4123;BME280;2075;51.062;6.920;2023-04-23T09:03:18;92876.25;;;-144.48;44.82
4123;BME280;2075;51.062;6.920;2023-04-23T09:06:04;92776.75;;;-144.48;43.67
4123;BME280;2075;51.062;6.920;2023-04-23T09:08:50;92774.72;;;-144.48;43.54
4123;BME280;2075;51.062;6.920;2023-04-23T09:11:36;92795.03;;;-144.48;43.35
4123;BME280;2075;51.062;6.920;2023-04-23T09:14:24;92876.25;;;-144.48;43.22
4123;BME280;2075;51.062;6.920;2023-04-23T09:17:09;92772.69;;;-144.48;43.09
4123;BME280;2075;51.062;6.920;2023-04-23T09:19:55;92880.31;;;-144.48;44.12
4123;BME280;2075;51.062;6.920;2023-04-23T09:22:41;92904.69;;;-144.48;44.60
4123;BME280;2075;51.062;6.920;2023-04-23T09:25:28;92929.06;;;-144.48;44.94
4123;BME280;2075;51.062;6.920;2023-04-23T09:28:14;92939.22;;;-144.48;44.90
4123;BME280;2075;51.062;6.920;2023-04-23T09:31:05;93077.31;;;-144.48;45.81
4123;BME280;2075;51.062;6.920;2023-04-23T09:33:51;93142.31;;;-144.48;47.27
4123;BME280;2075;51.062;6.920;2023-04-23T09:36:41;93085.44;;;-144.48;46.88
4123;BME280;2075;51.062;6.920;2023-04-23T09:39:26;93002.19;;;-144.48;45.87
4123;BME280;2075;51.062;6.920;2023-04-23T09:42:14;92937.19;;;-144.48;45.29
4123;BME280;2075;51.062;6.920;2023-04-23T09:45:03;93050.91;;;-144.48;46.35
4123;BME280;2075;51.062;6.920;2023-04-23T09:47:52;93256.06;;;-144.48;46.84
4123;BME280;2075;51.062;6.920;2023-04-23T09:50:39;93105.75;;;-144.48;47.37
4123;BME280;2075;51.062;6.920;2023-04-23T09:53:25;93148.41;;;-144.48;47.12
4123;BME280;2075;51.062;6.920;2023-04-23T09:56:10;93105.75;;;-144.48;46.92
4123;BME280;2075;51.062;6.920;2023-04-23T09:58:55;93140.28;;;-144.48;47.44
4123;BME280;2075;51.062;6.920;2023-04-23T10:01:44;93000.16;;;-144.48;46.13
4123;BME280;2075;51.062;6.920;2023-04-23T10:04:31;92941.25;;;-144.48;44.94
4123;BME280;2075;51.062;6.920;2023-04-23T10:07:17;92961.56;;;-144.48;42.69
4123;BME280;2075;51.062;6.920;2023-04-23T10:10:04;92809.25;;;-144.48;41.84
4123;BME280;2075;51.062;6.920;2023-04-23T10:12:51;92811.28;;;-144.48;41.00
4123;BME280;2075;51.062;6.920;2023-04-23T10:15:36;92782.84;;;-144.48;40.88
4123;BME280;2075;51.062;6.920;2023-04-23T10:18:22;92880.31;;;-144.48;41.48
4123;BME280;2075;51.062;6.920;2023-04-23T10:21:09;92835.66;;;-144.48;40.42
4123;BME280;2075;51.062;6.920;2023-04-23T10:23:55;92900.63;;;-144.48;39.79
4123;BME280;2075;51.062;6.920;2023-04-23T10:26:43;92927.03;;;-144.48;40.75
4123;BME280;2075;51.062;6.920;2023-04-23T10:29:31;92819.41;;;-144.48;38.92
4123;BME280;2075;51.062;6.920;2023-04-23T10:32:17;92801.13;;;-144.48;38.92
4123;BME280;2075;51.062;6.920;2023-04-23T10:35:05;92815.34;;;-144.48;39.24
4123;BME280;2075;51.062;6.920;2023-04-23T10:37:52;92782.84;;;-144.48;38.32
4123;BME280;2075;51.062;6.920;2023-04-23T10:40:39;92860.00;;;-144.48;38.76
4123;BME280;2075;51.062;6.920;2023-04-23T10:43:28;92813.31;;;-144.48;38.82
4123;BME280;2075;51.062;6.920;2023-04-23T10:46:32;92860.00;;;-144.48;38.08
4123;BME280;2075;51.062;6.920;2023-04-23T10:49:18;92862.03;;;-144.48;38.02
4123;BME280;2075;51.062;6.920;2023-04-23T10:52:07;92872.19;;;-144.48;37.21
4123;BME280;2075;51.062;6.920;2023-04-23T10:54:57;92687.41;;;-144.48;38.16
4123;BME280;2075;51.062;6.920;2023-04-23T10:58:00;93022.47;;;-144.48;38.75
4123;BME280;2075;51.062;6.920;2023-04-23T11:00:47;93138.25;;;-144.48;39.91
4123;BME280;2075;51.062;6.920;2023-04-23T11:03:36;93213.41;;;-144.48;40.43
4123;BME280;2075;51.062;6.920;2023-04-23T11:06:55;93213.41;;;-144.48;40.88
4123;BME280;2075;51.062;6.920;2023-04-23T11:09:42;93241.84;;;-144.48;41.54
4123;BME280;2075;51.062;6.920;2023-04-23T11:12:31;93231.69;;;-144.48;42.92
4123;BME280;2075;51.062;6.920;2023-04-23T11:15:18;93233.72;;;-144.48;42.97
4123;BME280;2075;51.062;6.920;2023-04-23T11:18:04;93004.22;;;-144.48;40.37
4123;BME280;2075;51.062;6.920;2023-04-23T11:20:49;92758.47;;;-144.48;38.84
4123;BME280;2075;51.062;6.920;2023-04-23T11:23:35;92821.44;;;-144.48;38.01
4123;BME280;2075;51.062;6.920;2023-04-23T11:26:22;92819.41;;;-144.48;37.56
4123;BME280;2075;51.062;6.920;2023-04-23T11:29:14;92892.50;;;-144.48;38.23
4123;BME280;2075;51.062;6.920;2023-04-23T11:31:59;93006.25;;;-144.48;38.39
4123;BME280;2075;51.062;6.920;2023-04-23T11:34:46;93024.53;;;-144.48;38.42
4123;BME280;2075;51.062;6.920;2023-04-23T11:37:38;92888.44;;;-144.48;38.19
4123;BME280;2075;51.062;6.920;2023-04-23T11:40:24;92931.09;;;-144.48;35.79
4123;BME280;2075;51.062;6.920;2023-04-23T11:43:17;92953.44;;;-144.48;35.80
4123;BME280;2075;51.062;6.920;2023-04-23T11:46:05;92705.66;;;-144.48;34.92
4123;BME280;2075;51.062;6.920;2023-04-23T11:48:51;92762.53;;;-144.48;34.75
4123;BME280;2075;51.062;6.920;2023-04-23T11:51:40;92685.38;;;-144.48;34.13
4123;BME280;2075;51.062;6.920;2023-04-23T11:54:27;92770.66;;;-144.48;34.13
4123;BME280;2075;51.062;6.920;2023-04-23T11:57:13;92730.03;;;-144.48;34.79
4123;BME280;2075;51.062;6.920;2023-04-23T11:59:59;92693.50;;;-144.48;34.95
4123;BME280;2075;51.062;6.920;2023-04-23T12:02:58;92721.91;;;-144.48;35.96
4123;BME280;2075;51.062;6.920;2023-04-23T12:05:44;92786.91;;;-144.48;35.43
4123;BME280;2075;51.062;6.920;2023-04-23T12:08:32;92811.28;;;-144.48;35.87
4123;BME280;2075;51.062;6.920;2023-04-23T12:11:22;92799.09;;;-144.48;36.25
4123;BME280;2075;51.062;6.920;2023-04-23T12:19:35;92752.38;;;-144.48;36.66
4123;BME280;2075;51.062;6.920;2023-04-23T12:22:28;92786.91;;;-144.48;36.10
4123;BME280;2075;51.062;6.920;2023-04-23T12:25:23;92738.16;;;-144.48;36.25
4123;BME280;2075;51.062;6.920;2023-04-23T12:28:10;92888.44;;;-144.48;36.97
4123;BME280;2075;51.062;6.920;2023-04-23T12:33:38;92918.91;;;-144.48;36.92
4123;BME280;2075;51.062;6.920;2023-04-23T12:36:27;92880.31;;;-144.48;36.36
4123;BME280;2075;51.062;6.920;2023-04-23T12:39:24;93059.03;;;-144.48;37.58
4123;BME280;2075;51.062;6.920;2023-04-23T12:42:10;92965.63;;;-144.48;37.15
4123;BME280;2075;51.062;6.920;2023-04-23T12:45:04;92886.41;;;-144.48;37.15
4123;BME280;2075;51.062;6.920;2023-04-23T12:47:50;92898.59;;;-144.48;36.17
4123;BME280;2075;51.062;6.920;2023-04-23T12:50:37;92945.31;;;-144.48;35.60
4123;BME280;2075;51.062;6.920;2023-04-23T12:53:24;92945.31;;;-144.48;35.58
4123;BME280;2075;51.062;6.920;2023-04-23T12:56:11;92949.38;;;-144.48;36.55
4123;BME280;2075;51.062;6.920;2023-04-23T12:58:56;92981.88;;;-144.48;36.61
4123;BME280;2075;51.062;6.920;2023-04-23T13:01:45;92981.88;;;-144.48;36.78
4123;BME280;2075;51.062;6.920;2023-04-23T13:04:32;92990.00;;;-144.48;36.26
4123;BME280;2075;51.062;6.920;2023-04-23T13:07:17;93022.47;;;-144.48;36.58
4123;BME280;2075;51.062;6.920;2023-04-23T13:10:05;93042.78;;;-144.48;36.35
4123;BME280;2075;51.062;6.920;2023-04-23T13:12:51;93012.34;;;-144.48;37.01
4123;BME280;2075;51.062;6.920;2023-04-23T13:15:36;93034.66;;;-144.48;36.57
4123;BME280;2075;51.062;6.920;2023-04-23T13:18:22;93050.91;;;-144.48;36.93
4123;BME280;2075;51.062;6.920;2023-04-23T13:21:08;93052.94;;;-144.48;36.70
4123;BME280;2075;51.062;6.920;2023-04-23T13:23:53;93030.59;;;-144.48;36.68
4123;BME280;2075;51.062;6.920;2023-04-23T13:26:40;93010.31;;;-144.48;36.74
4123;BME280;2075;51.062;6.920;2023-04-23T13:29:26;93014.38;;;-144.48;36.50
4123;BME280;2075;51.062;6.920;2023-04-23T13:32:11;93018.41;;;-144.48;36.29
4123;BME280;2075;51.062;6.920;2023-04-23T13:34:57;92937.19;;;-144.48;36.59
4123;BME280;2075;51.062;6.920;2023-04-23T13:37:45;92855.94;;;-144.48;36.21
4123;BME280;2075;51.062;6.920;2023-04-23T13:40:31;92872.19;;;-144.48;34.87
4123;BME280;2075;51.062;6.920;2023-04-23T13:43:18;92880.31;;;-144.48;34.16
4123;BME280;2075;51.062;6.920;2023-04-23T13:46:04;92827.53;;;-144.48;34.48
4123;BME280;2075;51.062;6.920;2023-04-23T13:48:51;92837.69;;;-144.48;34.21
4123;BME280;2075;51.062;6.920;2023-04-23T13:51:37;92967.66;;;-144.48;34.50
4123;BME280;2075;51.062;6.920;2023-04-23T13:54:22;92957.50;;;-144.48;34.94
4123;BME280;2075;51.062;6.920;2023-04-23T13:57:08;92961.56;;;-144.48;35.05
4123;BME280;2075;51.062;6.920;2023-04-23T13:59:55;92864.06;;;-144.48;34.89
4123;BME280;2075;51.062;6.920;2023-04-23T14:02:40;92943.28;;;-144.48;34.89
4123;BME280;2075;51.062;6.920;2023-04-23T14:05:25;93040.75;;;-144.48;35.45
4123;BME280;2075;51.062;6.920;2023-04-23T14:08:11;93018.41;;;-144.48;35.89
4123;BME280;2075;51.062;6.920;2023-04-23T14:10:57;93132.16;;;-144.48;35.94
4123;BME280;2075;51.062;6.920;2023-04-23T14:13:42;93136.22;;;-144.48;36.34
4123;BME280;2075;51.062;6.920;2023-04-23T14:16:29;93148.41;;;-144.48;36.08
4123;BME280;2075;51.062;6.920;2023-04-23T14:19:14;93174.81;;;-144.48;36.71
4123;BME280;2075;51.062;6.920;2023-04-23T14:22:00;93156.53;;;-144.48;36.78
4123;BME280;2075;51.062;6.920;2023-04-23T14:24:49;93140.28;;;-144.48;35.89
4123;BME280;2075;51.062;6.920;2023-04-23T14:27:39;93103.72;;;-144.48;35.74
4123;BME280;2075;51.062;6.920;2023-04-23T14:30:25;93063.09;;;-144.48;35.53
4123;BME280;2075;51.062;6.920;2023-04-23T14:33:13;93004.22;;;-144.48;35.15
4123;BME280;2075;51.062;6.920;2023-04-23T14:35:59;93014.38;;;-144.48;35.42
4123;BME280;2075;51.062;6.920;2023-04-23T14:38:45;93113.88;;;-144.48;35.58
4123;BME280;2075;51.062;6.920;2023-04-23T14:41:30;93026.53;;;-144.48;36.26
4123;BME280;2075;51.062;6.920;2023-04-23T14:44:16;93146.38;;;-144.48;37.66
4123;BME280;2075;51.062;6.920;2023-04-23T14:47:01;93193.09;;;-144.48;39.19
4123;BME280;2075;51.062;6.920;2023-04-23T14:49:48;93278.38;;;-144.48;39.99
4123;BME280;2075;51.062;6.920;2023-04-23T14:52:34;93270.25;;;-144.48;40.74
4123;BME280;2075;51.062;6.920;2023-04-23T14:55:20;93329.16;;;-144.48;40.98
4123;BME280;2075;51.062;6.920;2023-04-23T14:58:05;93306.81;;;-144.48;41.16
4123;BME280;2075;51.062;6.920;2023-04-23T15:00:51;93347.44;;;-144.48;41.67
4123;BME280;2075;51.062;6.920;2023-04-23T15:03:37;93335.25;;;-144.48;42.66
4123;BME280;2075;51.062;6.920;2023-04-23T15:06:23;93408.38;;;-144.48;43.58
4123;BME280;2075;51.062;6.920;2023-04-23T15:09:08;93430.72;;;-144.48;44.34